Flight Track Log - Related Links

Times and Time Zones

All times are in EDT time to prevent confusion due to time zone crossing. See the GJS3711 flight status page for this flight to view local times or setup timezone preferences in your user account.

Time Position Orientation Groundspeed Altitude Reporting Facility
EDT Latitude Longitude Course Direction KTS MPH feet Rate Location/Type
Fri 04:44:32 PM 41.9167 -87.8833 159° South 191 220 3,800  Level Chicago TRACON
Fri 04:45:10 PM 41.8800 -87.8700 165° South 204 235 4,800 1,800 Climbing Chicago Center
Fri 04:46:12 PM 41.8125 -87.8567 172° South 263 303 6,800 2,032 Climbing Chicago Center
Fri 04:47:00 PM 41.6778 -87.5527 159° South  Level Estimated
Fri 04:47:14 PM 41.7486 -87.9097 212° Southwest 277 319 9,000  Level Chicago Center
Fri 04:48:00 PM 41.6017 -87.4647 153° Southeast  Level Estimated
Fri 04:48:16 PM 41.6792 -87.9600 208° Southwest 286 329 11,500  Level Chicago Center
Fri 04:49:00 PM 41.5357 -87.3887 159° South  Level Estimated
Fri 04:49:18 PM 41.5789 -87.9611 180° South 305 351 14,700  Level Chicago Center
Fri 04:50:20 PM 41.4981 -87.8861 145° Southeast 351 404 15,900 1,548 Climbing Chicago Center
Fri 04:51:22 PM 41.4722 -87.7492 104° East 384 442 17,900 1,968 Climbing Chicago Center
Fri 04:52:25 PM 41.4631 -87.6086 95° East 381 438 20,000 1,488 Climbing Chicago Center
Fri 04:53:27 PM 41.4422 -87.4650 101° East 394 453 21,000 484 Climbing Chicago Center
Fri 04:54:29 PM 41.4200 -87.3192 101° East 402 463 21,000  Level Chicago Center
Fri 04:55:31 PM 41.3947 -87.1428 101° East 406 467 21,000  Level Chicago Center
Fri 04:56:33 PM 41.3711 -86.9983 102° East 403 464 21,000  Level Chicago Center
Fri 04:57:35 PM 41.3328 -86.8661 111° Southeast 385 443 21,000  Level Chicago Center
Fri 04:58:37 PM 41.2658 -86.7522 128° Southeast 390 449 21,000  Level Chicago Center
Fri 04:59:39 PM 41.1992 -86.6339 127° Southeast 385 443 21,000  Level Chicago Center
Fri 05:00:41 PM 41.1250 -86.5292 133° Southeast 391 450 21,000  Level Chicago Center
Fri 05:02:00 PM 41.0447 -86.4122 132° Southeast  Level FlightAware Approximate
Fri 05:02:26 PM 40.9783 -86.3167 132° Southeast 428 493 21,000  Level Indianapolis Center
Fri 05:03:28 PM 40.8928 -86.1939 133° Southeast 450 518 21,000  Level Indianapolis Center
Fri 05:04:30 PM 40.8061 -86.0692 133° Southeast 459 528 21,000  Level Indianapolis Center
Fri 05:05:32 PM 40.7208 -85.9467 133° Southeast 454 522 21,000  Level Indianapolis Center
Fri 05:06:34 PM 40.6356 -85.8267 133° Southeast 448 516 21,000  Level Indianapolis Center
Fri 05:07:36 PM 40.5503 -85.7061 133° Southeast 448 516 21,000  Level Indianapolis Center
Fri 05:08:38 PM 40.4489 -85.5656 133° Southeast 443 510 21,000 -774 Level Indianapolis Center
Fri 05:09:40 PM 40.3642 -85.4461 133° Southeast 444 511 19,400 -1,597 Descending Indianapolis Center
Fri 05:10:42 PM 40.2828 -85.3333 133° Southeast 429 494 17,700 -1,742 Descending Indianapolis Center
Fri 05:11:44 PM 40.2056 -85.2272 134° Southeast 408 470 15,800 -1,958 Descending Indianapolis Center
Fri 05:12:17 PM 40.1600 -85.1619 132° Southeast 393 452 14,600 -2,095 Descending Indianapolis Center
Fri 05:12:47 PM 40.1186 -85.1067 134° Southeast 389 448 13,600 -1,714 Descending Indianapolis Center
Fri 05:13:48 PM 40.0583 -85.0236 133° Southeast 384 442 12,000 -1,688 Descending Indianapolis Center
Fri 05:14:55 PM 39.9719 -84.9081 134° Southeast 357 411 10,000 -984 Descending Indianapolis Center
Fri 05:15:50 PM 39.8886 -84.8772 164° South 341 392 10,000  Level Indianapolis Center
Fri 05:16:50 PM 39.7925 -84.8497 168° South 353 406 10,000 -48 Level Indianapolis Center
Fri 05:17:56 PM 39.7028 -84.8844 197° South 350 403 9,900  Descending Indianapolis Center
Fri 05:18:58 PM 39.6056 -84.9058 190° South 350 403 10,000 -484 Climbing Indianapolis Center
Fri 05:20:00 PM 39.5247 -84.8961 175° South 304 350 8,900 -1,452 Descending Indianapolis Center
Fri 05:21:02 PM 39.4608 -84.8214 138° Southeast 281 323 7,000 -1,776 Descending Indianapolis Center
Fri 05:22:05 PM 39.4067 -84.7553 137° Southeast 271 312 5,200 -1,344 Descending Indianapolis Center
Fri 05:23:07 PM 39.3472 -84.7036 146° Southeast 260 299 4,200 -677 Descending Indianapolis Center
Fri 05:24:09 PM 39.2858 -84.6647 154° Southeast 258 297 3,800 -387 Descending Indianapolis Center

Login

Don't have an account? Register now (free) for customized features, flight alerts, and more!